sensor_id;sensor_type;location;lat;lon;timestamp;pressure;altitude;pressure_sealevel;temperature;humidity
74242;BME280;62599;49.146;10.426;2023-08-20T00:00:30;96174.63;;;20.59;100.00
74242;BME280;62599;49.146;10.426;2023-08-20T00:03:03;96166.75;;;20.51;100.00
74242;BME280;62599;49.146;10.426;2023-08-20T00:05:30;96169.81;;;20.46;100.00
74242;BME280;62599;49.146;10.426;2023-08-20T00:07:56;96171.78;;;20.45;100.00
74242;BME280;62599;49.146;10.426;2023-08-20T00:10:21;96169.06;;;20.49;100.00
74242;BME280;62599;49.146;10.426;2023-08-20T00:12:46;96163.56;;;20.45;100.00
74242;BME280;62599;49.146;10.426;2023-08-20T00:15:12;96161.94;;;20.37;100.00
74242;BME280;62599;49.146;10.426;2023-08-20T00:17:39;96166.22;;;20.27;100.00
74242;BME280;62599;49.146;10.426;2023-08-20T00:20:06;96170.06;;;20.19;100.00
74242;BME280;62599;49.146;10.426;2023-08-20T00:22:36;96162.59;;;20.09;100.00
74242;BME280;62599;49.146;10.426;2023-08-20T00:25:02;96163.31;;;20.02;100.00
74242;BME280;62599;49.146;10.426;2023-08-20T00:27:31;96165.25;;;19.98;100.00
74242;BME280;62599;49.146;10.426;2023-08-20T00:29:57;96177.72;;;19.95;100.00
74242;BME280;62599;49.146;10.426;2023-08-20T00:32:22;96174.59;;;19.93;100.00
74242;BME280;62599;49.146;10.426;2023-08-20T00:34:48;96167.97;;;19.94;100.00
74242;BME280;62599;49.146;10.426;2023-08-20T00:37:17;96178.13;;;19.94;100.00
74242;BME280;62599;49.146;10.426;2023-08-20T00:39:45;96174.94;;;19.88;100.00
74242;BME280;62599;49.146;10.426;2023-08-20T00:42:11;96189.03;;;19.90;100.00
74242;BME280;62599;49.146;10.426;2023-08-20T00:44:39;96175.31;;;19.83;100.00
74242;BME280;62599;49.146;10.426;2023-08-20T00:47:07;96184.28;;;19.84;100.00
74242;BME280;62599;49.146;10.426;2023-08-20T00:49:34;96189.03;;;19.90;100.00
74242;BME280;62599;49.146;10.426;2023-08-20T00:52:00;96185.09;;;19.88;100.00
74242;BME280;62599;49.146;10.426;2023-08-20T00:54:26;96185.13;;;19.91;100.00
74242;BME280;62599;49.146;10.426;2023-08-20T00:56:53;96193.31;;;19.91;100.00
74242;BME280;62599;49.146;10.426;2023-08-20T00:59:20;96185.06;;;19.84;100.00
74242;BME280;62599;49.146;10.426;2023-08-20T01:01:46;96187.81;;;19.88;100.00
74242;BME280;62599;49.146;10.426;2023-08-20T01:04:12;96188.63;;;19.92;100.00
74242;BME280;62599;49.146;10.426;2023-08-20T01:12:06;96181.72;;;20.05;100.00
74242;BME280;62599;49.146;10.426;2023-08-20T01:14:31;96180.88;;;19.98;100.00
74242;BME280;62599;49.146;10.426;2023-08-20T01:16:57;96173.06;;;20.00;100.00
74242;BME280;62599;49.146;10.426;2023-08-20T01:19:22;96188.28;;;19.97;100.00
74242;BME280;62599;49.146;10.426;2023-08-20T01:22:05;96176.16;;;19.94;100.00
74242;BME280;62599;49.146;10.426;2023-08-20T01:28:01;96185.16;;;19.99;100.00
74242;BME280;62599;49.146;10.426;2023-08-20T01:30:18;96180.09;;;20.01;100.00
74242;BME280;62599;49.146;10.426;2023-08-20T01:32:46;96185.94;;;19.99;100.00
74242;BME280;62599;49.146;10.426;2023-08-20T01:35:13;96190.22;;;19.96;100.00
74242;BME280;62599;49.146;10.426;2023-08-20T01:37:39;96187.09;;;19.94;100.00
74242;BME280;62599;49.146;10.426;2023-08-20T01:40:06;96192.16;;;19.92;100.00
74242;BME280;62599;49.146;10.426;2023-08-20T01:42:32;96188.28;;;19.93;100.00
74242;BME280;62599;49.146;10.426;2023-08-20T01:44:58;96196.06;;;19.91;100.00
74242;BME280;62599;49.146;10.426;2023-08-20T01:47:23;96188.22;;;19.86;100.00
74242;BME280;62599;49.146;10.426;2023-08-20T01:49:48;96191.34;;;19.88;100.00
74242;BME280;62599;49.146;10.426;2023-08-20T01:52:14;96185.09;;;19.88;100.00
74242;BME280;62599;49.146;10.426;2023-08-20T01:54:39;96189.78;;;19.87;100.00
74242;BME280;62599;49.146;10.426;2023-08-20T01:57:04;96185.06;;;19.84;100.00
74242;BME280;62599;49.146;10.426;2023-08-20T01:59:30;96190.09;;;19.79;100.00
74242;BME280;62599;49.146;10.426;2023-08-20T02:01:55;96190.47;;;19.77;100.00
74242;BME280;62599;49.146;10.426;2023-08-20T02:04:21;96188.50;;;19.74;100.00
74242;BME280;62599;49.146;10.426;2023-08-20T02:06:46;96198.63;;;19.70;100.00
74242;BME280;62599;49.146;10.426;2023-08-20T02:09:11;96201.34;;;19.70;100.00
74242;BME280;62599;49.146;10.426;2023-08-20T02:11:37;96200.97;;;19.71;100.00
74242;BME280;62599;49.146;10.426;2023-08-20T02:14:02;96199.44;;;19.74;100.00
74242;BME280;62599;49.146;10.426;2023-08-20T02:16:28;96198.25;;;19.75;100.00
74242;BME280;62599;49.146;10.426;2023-08-20T02:18:54;96198.69;;;19.77;100.00
74242;BME280;62599;49.146;10.426;2023-08-20T02:21:19;96201.41;;;19.77;100.00
74242;BME280;62599;49.146;10.426;2023-08-20T02:23:44;96201.44;;;19.81;100.00
74242;BME280;62599;49.146;10.426;2023-08-20T02:26:10;96196.00;;;19.84;100.00
74242;BME280;62599;49.146;10.426;2023-08-20T02:28:35;96200.75;;;19.91;100.00
74242;BME280;62599;49.146;10.426;2023-08-20T02:31:04;96193.75;;;19.93;100.00
74242;BME280;62599;49.146;10.426;2023-08-20T02:33:29;96204.72;;;20.01;100.00
74242;BME280;62599;49.146;10.426;2023-08-20T02:35:54;96205.16;;;20.06;100.00
74242;BME280;62599;49.146;10.426;2023-08-20T02:38:20;96203.19;;;20.07;100.00
74242;BME280;62599;49.146;10.426;2023-08-20T02:40:45;96208.66;;;20.07;100.00
74242;BME280;62599;49.146;10.426;2023-08-20T02:43:11;96210.19;;;20.04;100.00
74242;BME280;62599;49.146;10.426;2023-08-20T02:45:43;96195.69;;;19.96;100.00
74242;BME280;62599;49.146;10.426;2023-08-20T02:48:08;96202.34;;;19.95;100.00
74242;BME280;62599;49.146;10.426;2023-08-20T02:50:34;96192.13;;;19.89;100.00
74242;BME280;62599;49.146;10.426;2023-08-20T02:52:59;96199.53;;;19.88;100.00
74242;BME280;62599;49.146;10.426;2023-08-20T02:55:25;96189.72;;;19.80;100.00
74242;BME280;62599;49.146;10.426;2023-08-20T02:57:50;96189.66;;;19.73;100.00
74242;BME280;62599;49.146;10.426;2023-08-20T03:00:16;96190.84;;;19.72;100.00
74242;BME280;62599;49.146;10.426;2023-08-20T03:02:41;96188.84;;;19.69;100.00
74242;BME280;62599;49.146;10.426;2023-08-20T03:05:10;96190.34;;;19.63;100.00
74242;BME280;62599;49.146;10.426;2023-08-20T03:07:36;96195.81;;;19.63;100.00
74242;BME280;62599;49.146;10.426;2023-08-20T03:10:01;96191.06;;;19.60;100.00
74242;BME280;62599;49.146;10.426;2023-08-20T03:12:28;96190.66;;;19.54;100.00
74242;BME280;62599;49.146;10.426;2023-08-20T03:14:54;96186.25;;;19.46;100.00
74242;BME280;62599;49.146;10.426;2023-08-20T03:17:19;96179.94;;;19.38;100.00
74242;BME280;62599;49.146;10.426;2023-08-20T03:19:59;96187.34;;;19.34;100.00
74242;BME280;62599;49.146;10.426;2023-08-20T03:22:25;96191.59;;;19.32;100.00
74242;BME280;62599;49.146;10.426;2023-08-20T03:24:52;96187.69;;;19.29;100.00
74242;BME280;62599;49.146;10.426;2023-08-20T03:27:18;96188.44;;;19.26;100.00
74242;BME280;62599;49.146;10.426;2023-08-20T03:29:44;96188.41;;;19.22;100.00
74242;BME280;62599;49.146;10.426;2023-08-20T03:32:10;96191.84;;;19.16;100.00
74242;BME280;62599;49.146;10.426;2023-08-20T03:34:35;96192.16;;;19.07;100.00
74242;BME280;62599;49.146;10.426;2023-08-20T03:37:01;96191.69;;;19.02;100.00
74242;BME280;62599;49.146;10.426;2023-08-20T03:39:26;96179.56;;;18.99;100.00
74242;BME280;62599;49.146;10.426;2023-08-20T03:41:52;96185.00;;;18.95;100.00
74242;BME280;62599;49.146;10.426;2023-08-20T03:44:18;96188.03;;;18.90;100.00
74242;BME280;62599;49.146;10.426;2023-08-20T03:46:44;96186.88;;;18.91;100.00
74242;BME280;62599;49.146;10.426;2023-08-20T03:49:09;96190.38;;;18.88;100.00
74242;BME280;62599;49.146;10.426;2023-08-20T03:51:35;96194.63;;;18.86;100.00
74242;BME280;62599;49.146;10.426;2023-08-20T03:54:01;96193.81;;;18.82;100.00
74242;BME280;62599;49.146;10.426;2023-08-20T03:56:26;96196.91;;;18.80;100.00
74242;BME280;62599;49.146;10.426;2023-08-20T03:58:51;96191.78;;;18.75;100.00
74242;BME280;62599;49.146;10.426;2023-08-20T04:01:18;96184.63;;;18.67;100.00
74242;BME280;62599;49.146;10.426;2023-08-20T04:03:45;96191.94;;;18.59;100.00
74242;BME280;62599;49.146;10.426;2023-08-20T04:06:11;96193.88;;;18.59;100.00
74242;BME280;62599;49.146;10.426;2023-08-20T04:08:36;96199.75;;;18.61;100.00
74242;BME280;62599;49.146;10.426;2023-08-20T04:11:01;96193.13;;;18.62;100.00
74242;BME280;62599;49.146;10.426;2023-08-20T04:13:28;96195.47;;;18.60;100.00
74242;BME280;62599;49.146;10.426;2023-08-20T04:15:54;96205.59;;;18.59;100.00
74242;BME280;62599;49.146;10.426;2023-08-20T04:18:19;96200.13;;;18.59;100.00
74242;BME280;62599;49.146;10.426;2023-08-20T04:20:45;96199.28;;;18.55;100.00
74242;BME280;62599;49.146;10.426;2023-08-20T04:23:10;96204.75;;;18.55;100.00
74242;BME280;62599;49.146;10.426;2023-08-20T04:25:36;96200.81;;;18.52;100.00
74242;BME280;62599;49.146;10.426;2023-08-20T04:28:01;96209.00;;;18.52;100.00
74242;BME280;62599;49.146;10.426;2023-08-20T04:30:27;96194.06;;;18.43;100.00
74242;BME280;62599;49.146;10.426;2023-08-20T04:32:52;96203.47;;;18.45;100.00
74242;BME280;62599;49.146;10.426;2023-08-20T04:35:18;96196.75;;;18.39;100.00
74242;BME280;62599;49.146;10.426;2023-08-20T04:37:43;96200.63;;;18.38;100.00
74242;BME280;62599;49.146;10.426;2023-08-20T04:40:09;96199.91;;;18.41;100.00
74242;BME280;62599;49.146;10.426;2023-08-20T04:42:34;96203.03;;;18.43;100.00
74242;BME280;62599;49.146;10.426;2023-08-20T04:45:00;96202.28;;;18.46;100.00
74242;BME280;62599;49.146;10.426;2023-08-20T04:47:25;96203.66;;;18.60;100.00
74242;BME280;62599;49.146;10.426;2023-08-20T04:49:51;96216.56;;;18.63;100.00
74242;BME280;62599;49.146;10.426;2023-08-20T04:52:16;96217.00;;;18.68;100.00
74242;BME280;62599;49.146;10.426;2023-08-20T04:54:42;96222.97;;;18.74;100.00
74242;BME280;62599;49.146;10.426;2023-08-20T04:57:07;96221.47;;;18.80;100.00
74242;BME280;62599;49.146;10.426;2023-08-20T04:59:33;96228.91;;;18.83;100.00
74242;BME280;62599;49.146;10.426;2023-08-20T05:01:58;96221.16;;;18.85;100.00
74242;BME280;62599;49.146;10.426;2023-08-20T05:04:23;96226.28;;;18.90;100.00
74242;BME280;62599;49.146;10.426;2023-08-20T05:06:49;96222.81;;;18.93;100.00
74242;BME280;62599;49.146;10.426;2023-08-20T05:09:14;96235.75;;;19.00;100.00
74242;BME280;62599;49.146;10.426;2023-08-20T05:11:41;96227.59;;;19.04;100.00
74242;BME280;62599;49.146;10.426;2023-08-20T05:14:06;96240.91;;;19.09;100.00
74242;BME280;62599;49.146;10.426;2023-08-20T05:16:32;96238.66;;;19.14;100.00
74242;BME280;62599;49.146;10.426;2023-08-20T05:18:57;96240.69;;;19.21;100.00
74242;BME280;62599;49.146;10.426;2023-08-20T05:21:23;96239.16;;;19.27;100.00
74242;BME280;62599;49.146;10.426;2023-08-20T05:23:48;96239.25;;;19.34;100.00
74242;BME280;62599;49.146;10.426;2023-08-20T05:26:13;96245.16;;;19.40;100.00
74242;BME280;62599;49.146;10.426;2023-08-20T05:28:39;96246.38;;;19.46;100.00
74242;BME280;62599;49.146;10.426;2023-08-20T05:31:04;96243.31;;;19.51;100.00
74242;BME280;62599;49.146;10.426;2023-08-20T05:33:30;96254.28;;;19.55;100.00
74242;BME280;62599;49.146;10.426;2023-08-20T05:35:55;96244.56;;;19.57;100.00
74242;BME280;62599;49.146;10.426;2023-08-20T05:38:21;96242.72;;;19.65;100.00
74242;BME280;62599;49.146;10.426;2023-08-20T05:40:46;96242.38;;;19.74;100.00
74242;BME280;62599;49.146;10.426;2023-08-20T05:43:11;96244.44;;;19.84;100.00
74242;BME280;62599;49.146;10.426;2023-08-20T05:45:37;96239.06;;;19.94;100.00
74242;BME280;62599;49.146;10.426;2023-08-20T05:48:02;96243.03;;;20.04;100.00
74242;BME280;62599;49.146;10.426;2023-08-20T05:50:28;96237.63;;;20.15;100.00
74242;BME280;62599;49.146;10.426;2023-08-20T05:52:53;96242.38;;;20.22;100.00
74242;BME280;62599;49.146;10.426;2023-08-20T05:55:19;96239.31;;;20.30;100.00
74242;BME280;62599;49.146;10.426;2023-08-20T05:57:44;96226.06;;;20.36;100.00
74242;BME280;62599;49.146;10.426;2023-08-20T06:00:10;96228.47;;;20.44;100.00
74242;BME280;62599;49.146;10.426;2023-08-20T06:02:37;96223.09;;;20.55;100.00
74242;BME280;62599;49.146;10.426;2023-08-20T06:05:03;96232.50;;;20.65;100.00
74242;BME280;62599;49.146;10.426;2023-08-20T06:07:31;96226.31;;;20.75;100.00
74242;BME280;62599;49.146;10.426;2023-08-20T06:09:57;96226.34;;;20.82;100.00
74242;BME280;62599;49.146;10.426;2023-08-20T06:12:23;96237.34;;;20.97;100.00
74242;BME280;62599;49.146;10.426;2023-08-20T06:14:49;96234.25;;;21.09;100.00
74242;BME280;62599;49.146;10.426;2023-08-20T06:24:52;96225.78;;;21.43;100.00
74242;BME280;62599;49.146;10.426;2023-08-20T06:27:18;96237.94;;;21.56;100.00
74242;BME280;62599;49.146;10.426;2023-08-20T07:33:49;96275.53;;;24.35;93.72
74242;BME280;62599;49.146;10.426;2023-08-20T07:36:16;96272.75;;;24.42;93.22
74242;BME280;62599;49.146;10.426;2023-08-20T07:38:43;96265.97;;;24.50;92.38
74242;BME280;62599;49.146;10.426;2023-08-20T07:41:09;96277.31;;;24.59;91.62
74242;BME280;62599;49.146;10.426;2023-08-20T07:43:37;96274.84;;;24.68;91.58
74242;BME280;62599;49.146;10.426;2023-08-20T07:46:05;96270.47;;;24.74;90.62
74242;BME280;62599;49.146;10.426;2023-08-20T07:48:31;96274.69;;;24.83;89.91
74242;BME280;62599;49.146;10.426;2023-08-20T07:50:56;96276.16;;;24.91;89.66
74242;BME280;62599;49.146;10.426;2023-08-20T07:53:22;96283.94;;;25.03;88.91
74242;BME280;62599;49.146;10.426;2023-08-20T07:55:47;96290.56;;;25.13;87.91
74242;BME280;62599;49.146;10.426;2023-08-20T07:58:13;96294.78;;;25.21;87.73
74242;BME280;62599;49.146;10.426;2023-08-20T08:00:38;96299.72;;;25.37;87.04
74242;BME280;62599;49.146;10.426;2023-08-20T08:03:04;96303.94;;;25.45;85.88
74242;BME280;62599;49.146;10.426;2023-08-20T08:05:29;96295.94;;;25.54;86.17
74242;BME280;62599;49.146;10.426;2023-08-20T08:07:55;96297.78;;;25.64;84.45
74242;BME280;62599;49.146;10.426;2023-08-20T08:10:20;96301.63;;;25.70;83.27
74242;BME280;62599;49.146;10.426;2023-08-20T08:12:46;96298.03;;;25.74;83.56
74242;BME280;62599;49.146;10.426;2023-08-20T08:15:12;96290.13;;;25.79;83.00
74242;BME280;62599;49.146;10.426;2023-08-20T08:17:38;96291.66;;;25.80;81.00
74242;BME280;62599;49.146;10.426;2023-08-20T08:20:04;96294.66;;;25.93;80.75
74242;BME280;62599;49.146;10.426;2023-08-20T08:22:29;96294.91;;;26.02;80.03
74242;BME280;62599;49.146;10.426;2023-08-20T08:24:55;96301.88;;;26.10;78.97
74242;BME280;62599;49.146;10.426;2023-08-20T08:27:21;96292.69;;;26.17;78.89
74242;BME280;62599;49.146;10.426;2023-08-20T08:29:46;96294.13;;;26.25;78.72
74242;BME280;62599;49.146;10.426;2023-08-20T08:32:12;96294.44;;;26.31;78.54
74242;BME280;62599;49.146;10.426;2023-08-20T08:34:37;96301.78;;;26.41;77.82
74242;BME280;62599;49.146;10.426;2023-08-20T08:37:03;96305.66;;;26.47;75.81
74242;BME280;62599;49.146;10.426;2023-08-20T08:39:29;96305.53;;;26.54;75.01
74242;BME280;62599;49.146;10.426;2023-08-20T08:42:01;96303.13;;;26.56;72.11
74242;BME280;62599;49.146;10.426;2023-08-20T08:44:30;96306.91;;;26.66;71.16
74242;BME280;62599;49.146;10.426;2023-08-20T08:46:57;96307.19;;;26.72;70.39
74242;BME280;62599;49.146;10.426;2023-08-20T08:49:22;96310.44;;;26.90;70.75
74242;BME280;62599;49.146;10.426;2023-08-20T08:51:48;96300.81;;;26.98;69.63
74242;BME280;62599;49.146;10.426;2023-08-20T08:54:13;96307.13;;;26.99;66.45
74242;BME280;62599;49.146;10.426;2023-08-20T08:56:40;96310.34;;;27.17;67.53
74242;BME280;62599;49.146;10.426;2023-08-20T08:59:05;96310.69;;;27.19;66.30
74242;BME280;62599;49.146;10.426;2023-08-20T09:01:31;96314.84;;;27.31;65.73
74242;BME280;62599;49.146;10.426;2023-08-20T09:03:57;96318.56;;;27.41;64.88
74242;BME280;62599;49.146;10.426;2023-08-20T09:06:22;96309.72;;;27.49;64.95
74242;BME280;62599;49.146;10.426;2023-08-20T09:08:47;96310.91;;;27.48;64.98
74242;BME280;62599;49.146;10.426;2023-08-20T09:11:13;96309.34;;;27.47;64.03
74242;BME280;62599;49.146;10.426;2023-08-20T09:13:40;96311.53;;;27.56;63.75
74242;BME280;62599;49.146;10.426;2023-08-20T09:16:10;96319.19;;;27.68;63.13
74242;BME280;62599;49.146;10.426;2023-08-20T09:18:45;96312.69;;;27.78;63.19
74242;BME280;62599;49.146;10.426;2023-08-20T09:21:13;96313.78;;;27.81;62.78
74242;BME280;62599;49.146;10.426;2023-08-20T09:23:39;96308.94;;;27.85;62.45
74242;BME280;62599;49.146;10.426;2023-08-20T09:26:06;96314.00;;;27.90;62.62
74242;BME280;62599;49.146;10.426;2023-08-20T09:28:41;96317.75;;;28.00;62.74
74242;BME280;62599;49.146;10.426;2023-08-20T09:31:07;96317.50;;;28.11;62.32
74242;BME280;62599;49.146;10.426;2023-08-20T09:33:32;96314.91;;;28.20;62.09
74242;BME280;62599;49.146;10.426;2023-08-20T09:35:58;96314.09;;;28.36;61.85
74242;BME280;62599;49.146;10.426;2023-08-20T09:38:24;96318.91;;;28.51;60.41
74242;BME280;62599;49.146;10.426;2023-08-20T09:40:53;96316.38;;;28.57;59.39
74242;BME280;62599;49.146;10.426;2023-08-20T09:43:23;96320.66;;;28.62;59.24
74242;BME280;62599;49.146;10.426;2023-08-20T09:45:54;96324.88;;;28.66;59.13
74242;BME280;62599;49.146;10.426;2023-08-20T09:48:20;96320.56;;;28.65;57.68
74242;BME280;62599;49.146;10.426;2023-08-20T09:50:47;96313.09;;;28.62;56.86
74242;BME280;62599;49.146;10.426;2023-08-20T09:53:34;96318.38;;;28.73;56.94
74242;BME280;62599;49.146;10.426;2023-08-20T09:56:29;96318.97;;;28.81;56.96
74242;BME280;62599;49.146;10.426;2023-08-20T09:58:55;96325.53;;;29.03;55.31
74242;BME280;62599;49.146;10.426;2023-08-20T10:01:21;96318.97;;;29.26;55.03
74242;BME280;62599;49.146;10.426;2023-08-20T10:03:47;96319.69;;;29.43;54.51
74242;BME280;62599;49.146;10.426;2023-08-20T10:06:13;96322.06;;;29.57;53.41
74242;BME280;62599;49.146;10.426;2023-08-20T10:08:38;96318.34;;;29.47;55.33
74242;BME280;62599;49.146;10.426;2023-08-20T10:11:04;96317.84;;;29.53;55.07
74242;BME280;62599;49.146;10.426;2023-08-20T10:13:30;96318.34;;;29.64;54.90
74242;BME280;62599;49.146;10.426;2023-08-20T10:15:55;96311.19;;;29.63;56.23
74242;BME280;62599;49.146;10.426;2023-08-20T10:18:22;96318.44;;;29.60;55.57
74242;BME280;62599;49.146;10.426;2023-08-20T10:20:51;96315.38;;;29.55;55.91
74242;BME280;62599;49.146;10.426;2023-08-20T10:23:20;96319.59;;;29.46;56.78
74242;BME280;62599;49.146;10.426;2023-08-20T10:25:52;96315.69;;;29.44;56.85
74242;BME280;62599;49.146;10.426;2023-08-20T10:28:27;96315.13;;;29.36;58.23
74242;BME280;62599;49.146;10.426;2023-08-20T10:31:03;96319.78;;;29.39;58.57
74242;BME280;62599;49.146;10.426;2023-08-20T10:33:31;96316.66;;;29.37;58.75
74242;BME280;62599;49.146;10.426;2023-08-20T10:35:57;96320.47;;;29.43;59.19
74242;BME280;62599;49.146;10.426;2023-08-20T10:38:22;96321.50;;;29.49;58.93
74242;BME280;62599;49.146;10.426;2023-08-20T10:40:55;96315.38;;;29.55;58.94
74242;BME280;62599;49.146;10.426;2023-08-20T10:48:36;96310.97;;;29.70;59.02
74242;BME280;62599;49.146;10.426;2023-08-20T10:53:41;96319.25;;;29.86;57.09
74242;BME280;62599;49.146;10.426;2023-08-20T10:56:16;96312.13;;;29.98;57.38
74242;BME280;62599;49.146;10.426;2023-08-20T10:58:44;96307.81;;;29.97;56.54
74242;BME280;62599;49.146;10.426;2023-08-20T11:01:20;96313.16;;;30.04;57.68
74242;BME280;62599;49.146;10.426;2023-08-20T11:03:47;96315.06;;;30.20;57.02
74242;BME280;62599;49.146;10.426;2023-08-20T11:06:14;96306.47;;;30.27;57.08
74242;BME280;62599;49.146;10.426;2023-08-20T11:08:39;96305.72;;;30.39;55.60
74242;BME280;62599;49.146;10.426;2023-08-20T11:11:08;96303.66;;;30.53;54.50
74242;BME280;62599;49.146;10.426;2023-08-20T11:13:35;96306.00;;;30.54;55.19
74242;BME280;62599;49.146;10.426;2023-08-20T11:16:05;96302.00;;;30.55;55.15
74242;BME280;62599;49.146;10.426;2023-08-20T11:18:34;96295.00;;;30.51;54.58
74242;BME280;62599;49.146;10.426;2023-08-20T11:21:00;96298.84;;;30.66;54.53
74242;BME280;62599;49.146;10.426;2023-08-20T11:23:26;96297.06;;;30.72;54.46
74242;BME280;62599;49.146;10.426;2023-08-20T11:25:55;96303.63;;;30.78;53.31
74242;BME280;62599;49.146;10.426;2023-08-20T11:28:25;96307.53;;;30.81;49.82
74242;BME280;62599;49.146;10.426;2023-08-20T11:30:51;96301.06;;;30.71;50.08
74242;BME280;62599;49.146;10.426;2023-08-20T11:33:22;96295.78;;;30.99;49.01
74242;BME280;62599;49.146;10.426;2023-08-20T11:35:48;96295.28;;;31.13;48.47
74242;BME280;62599;49.146;10.426;2023-08-20T11:38:14;96303.78;;;31.31;48.21
74242;BME280;62599;49.146;10.426;2023-08-20T11:40:42;96290.94;;;31.56;47.75
74242;BME280;62599;49.146;10.426;2023-08-20T11:43:08;96298.47;;;31.77;47.67
74242;BME280;62599;49.146;10.426;2023-08-20T11:45:49;96304.19;;;31.96;47.53
74242;BME280;62599;49.146;10.426;2023-08-20T11:48:20;96294.53;;;31.87;46.05
74242;BME280;62599;49.146;10.426;2023-08-20T11:50:59;96302.06;;;31.78;46.28
74242;BME280;62599;49.146;10.426;2023-08-20T11:53:30;96285.38;;;31.56;45.61
74242;BME280;62599;49.146;10.426;2023-08-20T11:55:55;96285.50;;;31.30;45.68
74242;BME280;62599;49.146;10.426;2023-08-20T11:58:24;96291.41;;;31.32;45.69
74242;BME280;62599;49.146;10.426;2023-08-20T12:00:54;96293.63;;;31.37;47.58
74242;BME280;62599;49.146;10.426;2023-08-20T12:03:29;96293.84;;;31.30;47.56
74242;BME280;62599;49.146;10.426;2023-08-20T12:05:54;96287.88;;;31.19;47.04
74242;BME280;62599;49.146;10.426;2023-08-20T12:08:25;96281.53;;;31.18;46.95
74242;BME280;62599;49.146;10.426;2023-08-20T12:10:59;96285.09;;;31.19;46.48
74242;BME280;62599;49.146;10.426;2023-08-20T12:13:34;96291.06;;;31.30;44.84
74242;BME280;62599;49.146;10.426;2023-08-20T12:16:04;96292.28;;;31.29;46.07
74242;BME280;62599;49.146;10.426;2023-08-20T12:18:32;96292.28;;;31.29;47.45
74242;BME280;62599;49.146;10.426;2023-08-20T12:20:57;96291.16;;;31.39;46.72
74242;BME280;62599;49.146;10.426;2023-08-20T12:23:23;96282.53;;;31.47;46.52
74242;BME280;62599;49.146;10.426;2023-08-20T12:25:52;96284.41;;;31.50;45.83
74242;BME280;62599;49.146;10.426;2023-08-20T12:28:17;96278.19;;;31.46;45.75
74242;BME280;62599;49.146;10.426;2023-08-20T12:30:44;96271.59;;;31.52;46.03
74242;BME280;62599;49.146;10.426;2023-08-20T12:33:11;96276.09;;;31.59;45.23
74242;BME280;62599;49.146;10.426;2023-08-20T12:35:36;96273.63;;;31.61;46.20
74242;BME280;62599;49.146;10.426;2023-08-20T12:38:03;96275.38;;;31.68;45.96
74242;BME280;62599;49.146;10.426;2023-08-20T12:40:30;96270.94;;;31.79;46.05
74242;BME280;62599;49.146;10.426;2023-08-20T12:43:01;96274.00;;;31.72;46.47
74242;BME280;62599;49.146;10.426;2023-08-20T12:45:28;96275.81;;;31.66;46.50
74242;BME280;62599;49.146;10.426;2023-08-20T12:47:56;96269.06;;;31.76;46.03
74242;BME280;62599;49.146;10.426;2023-08-20T12:50:21;96262.44;;;31.83;46.34
74242;BME280;62599;49.146;10.426;2023-08-20T12:52:47;96265.75;;;31.91;45.37
74242;BME280;62599;49.146;10.426;2023-08-20T12:55:16;96261.28;;;31.93;45.08
74242;BME280;62599;49.146;10.426;2023-08-20T12:57:57;96258.03;;;31.95;45.80
74242;BME280;62599;49.146;10.426;2023-08-20T13:00:24;96263.44;;;31.98;45.69
74242;BME280;62599;49.146;10.426;2023-08-20T13:02:56;96254.66;;;32.00;46.35
74242;BME280;62599;49.146;10.426;2023-08-20T13:05:23;96253.94;;;32.18;46.06
74242;BME280;62599;49.146;10.426;2023-08-20T13:07:51;96252.53;;;32.22;46.21
74242;BME280;62599;49.146;10.426;2023-08-20T13:10:18;96252.22;;;32.20;45.61
74242;BME280;62599;49.146;10.426;2023-08-20T13:12:48;96255.91;;;32.17;45.59
74242;BME280;62599;49.146;10.426;2023-08-20T13:15:16;96256.44;;;32.25;45.91
74242;BME280;62599;49.146;10.426;2023-08-20T13:17:42;96240.63;;;32.31;46.90
74242;BME280;62599;49.146;10.426;2023-08-20T13:20:08;96239.84;;;32.30;47.00
74242;BME280;62599;49.146;10.426;2023-08-20T13:22:33;96243.97;;;32.07;46.77
74242;BME280;62599;49.146;10.426;2023-08-20T13:24:59;96250.81;;;32.16;46.72
74242;BME280;62599;49.146;10.426;2023-08-20T13:27:24;96240.75;;;32.27;45.50
74242;BME280;62599;49.146;10.426;2023-08-20T13:29:50;96248.91;;;32.44;45.73
74242;BME280;62599;49.146;10.426;2023-08-20T13:32:19;96248.13;;;32.52;44.59
74242;BME280;62599;49.146;10.426;2023-08-20T13:34:44;96241.78;;;32.61;43.82
74242;BME280;62599;49.146;10.426;2023-08-20T13:37:09;96248.91;;;32.71;44.31
74242;BME280;62599;49.146;10.426;2023-08-20T13:39:35;96251.56;;;32.84;44.82
74242;BME280;62599;49.146;10.426;2023-08-20T13:42:00;96243.66;;;32.92;45.49
74242;BME280;62599;49.146;10.426;2023-08-20T13:44:25;96252.69;;;33.05;45.28
74242;BME280;62599;49.146;10.426;2023-08-20T13:46:51;96247.84;;;33.15;44.97
74242;BME280;62599;49.146;10.426;2023-08-20T13:49:16;96249.88;;;33.14;44.63
74242;BME280;62599;49.146;10.426;2023-08-20T13:51:42;96249.25;;;33.19;44.00
74242;BME280;62599;49.146;10.426;2023-08-20T13:54:07;96252.34;;;33.21;44.00
74242;BME280;62599;49.146;10.426;2023-08-20T13:56:32;96244.72;;;33.22;43.63
74242;BME280;62599;49.146;10.426;2023-08-20T13:58:58;96246.13;;;33.26;43.66
74242;BME280;62599;49.146;10.426;2023-08-20T14:01:23;96248.78;;;33.30;44.08
74242;BME280;62599;49.146;10.426;2023-08-20T14:03:48;96242.53;;;33.26;43.44
74242;BME280;62599;49.146;10.426;2023-08-20T14:06:15;96248.63;;;33.24;42.44
74242;BME280;62599;49.146;10.426;2023-08-20T14:08:42;96240.25;;;33.06;42.08
74242;BME280;62599;49.146;10.426;2023-08-20T14:11:09;96237.16;;;32.95;42.59